sensor_id;sensor_type;location;lat;lon;timestamp;P1;durP1;ratioP1;P2;durP2;ratioP2
4365;SDS011;2196;47.422;9.656;2022-08-03T00:01:02;3.27;;;3.03;;
4365;SDS011;2196;47.422;9.656;2022-08-03T00:03:29;3.17;;;2.93;;
4365;SDS011;2196;47.422;9.656;2022-08-03T00:05:56;3.10;;;2.90;;
4365;SDS011;2196;47.422;9.656;2022-08-03T00:08:23;3.10;;;2.90;;
4365;SDS011;2196;47.422;9.656;2022-08-03T00:10:50;3.03;;;2.83;;
4365;SDS011;2196;47.422;9.656;2022-08-03T00:13:18;3.93;;;2.93;;
4365;SDS011;2196;47.422;9.656;2022-08-03T00:15:45;2.53;;;2.43;;
4365;SDS011;2196;47.422;9.656;2022-08-03T00:18:12;2.57;;;2.37;;
4365;SDS011;2196;47.422;9.656;2022-08-03T00:20:39;4.10;;;2.70;;
4365;SDS011;2196;47.422;9.656;2022-08-03T00:23:06;2.67;;;2.57;;
4365;SDS011;2196;47.422;9.656;2022-08-03T00:25:33;4.60;;;2.87;;
4365;SDS011;2196;47.422;9.656;2022-08-03T00:28:01;3.30;;;2.80;;
4365;SDS011;2196;47.422;9.656;2022-08-03T00:30:30;2.60;;;2.50;;
4365;SDS011;2196;47.422;9.656;2022-08-03T00:32:58;3.17;;;3.07;;
4365;SDS011;2196;47.422;9.656;2022-08-03T00:35:25;2.60;;;2.50;;
4365;SDS011;2196;47.422;9.656;2022-08-03T00:37:52;3.80;;;3.47;;
4365;SDS011;2196;47.422;9.656;2022-08-03T00:40:19;4.23;;;2.67;;
4365;SDS011;2196;47.422;9.656;2022-08-03T00:42:47;3.20;;;3.00;;
4365;SDS011;2196;47.422;9.656;2022-08-03T00:45:16;2.20;;;2.20;;
4365;SDS011;2196;47.422;9.656;2022-08-03T00:47:44;2.87;;;2.67;;
4365;SDS011;2196;47.422;9.656;2022-08-03T00:50:12;2.33;;;2.23;;
4365;SDS011;2196;47.422;9.656;2022-08-03T00:52:39;3.50;;;2.83;;
4365;SDS011;2196;47.422;9.656;2022-08-03T00:55:07;2.50;;;2.43;;
4365;SDS011;2196;47.422;9.656;2022-08-03T00:57:35;3.00;;;2.80;;
4365;SDS011;2196;47.422;9.656;2022-08-03T01:00:03;2.77;;;2.57;;
4365;SDS011;2196;47.422;9.656;2022-08-03T01:02:31;2.77;;;2.57;;
4365;SDS011;2196;47.422;9.656;2022-08-03T01:05:00;2.30;;;2.20;;
4365;SDS011;2196;47.422;9.656;2022-08-03T01:07:30;3.07;;;2.90;;
4365;SDS011;2196;47.422;9.656;2022-08-03T01:10:08;2.83;;;2.70;;
4365;SDS011;2196;47.422;9.656;2022-08-03T01:12:43;3.20;;;3.00;;
4365;SDS011;2196;47.422;9.656;2022-08-03T01:15:18;2.87;;;2.77;;
4365;SDS011;2196;47.422;9.656;2022-08-03T01:17:51;2.90;;;2.70;;
4365;SDS011;2196;47.422;9.656;2022-08-03T01:20:24;2.87;;;2.77;;
4365;SDS011;2196;47.422;9.656;2022-08-03T01:26:19;2.83;;;2.73;;
4365;SDS011;2196;47.422;9.656;2022-08-03T01:29:03;2.97;;;2.87;;
4365;SDS011;2196;47.422;9.656;2022-08-03T01:31:45;3.20;;;2.87;;
4365;SDS011;2196;47.422;9.656;2022-08-03T01:34:18;2.90;;;2.80;;
4365;SDS011;2196;47.422;9.656;2022-08-03T01:36:48;3.27;;;3.17;;
4365;SDS011;2196;47.422;9.656;2022-08-03T01:39:19;3.80;;;2.47;;
4365;SDS011;2196;47.422;9.656;2022-08-03T01:41:48;3.50;;;3.20;;
4365;SDS011;2196;47.422;9.656;2022-08-03T01:44:22;3.43;;;3.33;;
4365;SDS011;2196;47.422;9.656;2022-08-03T01:46:51;3.60;;;3.27;;
4365;SDS011;2196;47.422;9.656;2022-08-03T01:49:19;3.20;;;3.10;;
4365;SDS011;2196;47.422;9.656;2022-08-03T01:51:46;3.53;;;3.30;;
4365;SDS011;2196;47.422;9.656;2022-08-03T01:54:14;4.37;;;4.07;;
4365;SDS011;2196;47.422;9.656;2022-08-03T01:56:42;4.10;;;3.80;;
4365;SDS011;2196;47.422;9.656;2022-08-03T01:59:11;3.40;;;3.20;;
4365;SDS011;2196;47.422;9.656;2022-08-03T02:01:41;5.73;;;3.70;;
4365;SDS011;2196;47.422;9.656;2022-08-03T02:04:10;3.07;;;2.97;;
4365;SDS011;2196;47.422;9.656;2022-08-03T02:06:39;4.00;;;3.37;;
4365;SDS011;2196;47.422;9.656;2022-08-03T02:09:08;3.20;;;3.00;;
4365;SDS011;2196;47.422;9.656;2022-08-03T02:11:37;3.37;;;3.20;;
4365;SDS011;2196;47.422;9.656;2022-08-03T02:14:04;2.73;;;2.63;;
4365;SDS011;2196;47.422;9.656;2022-08-03T02:16:32;4.97;;;3.33;;
4365;SDS011;2196;47.422;9.656;2022-08-03T02:19:02;3.20;;;3.10;;
4365;SDS011;2196;47.422;9.656;2022-08-03T02:21:34;3.97;;;3.70;;
4365;SDS011;2196;47.422;9.656;2022-08-03T02:24:03;3.10;;;2.70;;
4365;SDS011;2196;47.422;9.656;2022-08-03T02:26:31;3.50;;;3.20;;
4365;SDS011;2196;47.422;9.656;2022-08-03T02:29:02;3.77;;;3.57;;
4365;SDS011;2196;47.422;9.656;2022-08-03T02:31:36;3.10;;;2.97;;
4365;SDS011;2196;47.422;9.656;2022-08-03T02:34:05;3.47;;;3.27;;
4365;SDS011;2196;47.422;9.656;2022-08-03T02:36:38;2.87;;;2.67;;
4365;SDS011;2196;47.422;9.656;2022-08-03T02:39:09;3.07;;;2.97;;
4365;SDS011;2196;47.422;9.656;2022-08-03T02:41:40;3.07;;;2.87;;
4365;SDS011;2196;47.422;9.656;2022-08-03T02:44:10;3.20;;;3.10;;
4365;SDS011;2196;47.422;9.656;2022-08-03T02:46:38;3.93;;;3.70;;
4365;SDS011;2196;47.422;9.656;2022-08-03T02:49:09;3.83;;;2.83;;
4365;SDS011;2196;47.422;9.656;2022-08-03T02:51:40;3.57;;;3.37;;
4365;SDS011;2196;47.422;9.656;2022-08-03T02:54:08;3.53;;;3.40;;
4365;SDS011;2196;47.422;9.656;2022-08-03T02:56:37;3.10;;;2.83;;
4365;SDS011;2196;47.422;9.656;2022-08-03T02:59:06;3.70;;;3.40;;
4365;SDS011;2196;47.422;9.656;2022-08-03T03:01:34;3.17;;;2.97;;
4365;SDS011;2196;47.422;9.656;2022-08-03T03:04:03;3.17;;;3.07;;
4365;SDS011;2196;47.422;9.656;2022-08-03T03:06:31;4.00;;;3.50;;
4365;SDS011;2196;47.422;9.656;2022-08-03T03:08:59;3.67;;;3.47;;
4365;SDS011;2196;47.422;9.656;2022-08-03T03:11:27;3.20;;;3.10;;
4365;SDS011;2196;47.422;9.656;2022-08-03T03:13:55;3.93;;;3.77;;
4365;SDS011;2196;47.422;9.656;2022-08-03T03:16:23;4.67;;;4.07;;
4365;SDS011;2196;47.422;9.656;2022-08-03T03:18:52;4.20;;;3.97;;
4365;SDS011;2196;47.422;9.656;2022-08-03T03:21:20;4.37;;;3.97;;
4365;SDS011;2196;47.422;9.656;2022-08-03T03:23:48;4.83;;;4.40;;
4365;SDS011;2196;47.422;9.656;2022-08-03T03:26:18;4.57;;;4.23;;
4365;SDS011;2196;47.422;9.656;2022-08-03T03:28:47;6.07;;;4.00;;
4365;SDS011;2196;47.422;9.656;2022-08-03T03:31:14;4.00;;;3.60;;
4365;SDS011;2196;47.422;9.656;2022-08-03T03:33:41;4.47;;;4.17;;
4365;SDS011;2196;47.422;9.656;2022-08-03T03:36:12;3.90;;;3.60;;
4365;SDS011;2196;47.422;9.656;2022-08-03T03:38:39;3.97;;;3.77;;
4365;SDS011;2196;47.422;9.656;2022-08-03T03:41:06;3.73;;;3.50;;
4365;SDS011;2196;47.422;9.656;2022-08-03T03:43:34;3.50;;;3.30;;
4365;SDS011;2196;47.422;9.656;2022-08-03T03:46:01;4.10;;;3.80;;
4365;SDS011;2196;47.422;9.656;2022-08-03T03:48:30;5.10;;;3.50;;
4365;SDS011;2196;47.422;9.656;2022-08-03T03:50:57;5.97;;;3.70;;
4365;SDS011;2196;47.422;9.656;2022-08-03T03:53:24;3.07;;;2.97;;
4365;SDS011;2196;47.422;9.656;2022-08-03T03:55:51;5.13;;;3.70;;
4365;SDS011;2196;47.422;9.656;2022-08-03T03:58:19;3.63;;;3.43;;
4365;SDS011;2196;47.422;9.656;2022-08-03T04:00:48;3.63;;;3.43;;
4365;SDS011;2196;47.422;9.656;2022-08-03T04:03:15;3.53;;;3.33;;
4365;SDS011;2196;47.422;9.656;2022-08-03T04:05:42;3.30;;;3.00;;
4365;SDS011;2196;47.422;9.656;2022-08-03T04:08:28;4.17;;;3.63;;
4365;SDS011;2196;47.422;9.656;2022-08-03T04:11:13;3.23;;;3.13;;
4365;SDS011;2196;47.422;9.656;2022-08-03T04:13:44;3.50;;;3.30;;
4365;SDS011;2196;47.422;9.656;2022-08-03T04:16:18;3.97;;;2.70;;
4365;SDS011;2196;47.422;9.656;2022-08-03T04:18:51;3.43;;;3.23;;
4365;SDS011;2196;47.422;9.656;2022-08-03T04:21:20;2.90;;;2.80;;
4365;SDS011;2196;47.422;9.656;2022-08-03T04:23:50;4.07;;;3.63;;
4365;SDS011;2196;47.422;9.656;2022-08-03T04:26:19;3.63;;;3.43;;
4365;SDS011;2196;47.422;9.656;2022-08-03T04:28:49;3.43;;;3.23;;
4365;SDS011;2196;47.422;9.656;2022-08-03T04:31:21;3.07;;;2.83;;
4365;SDS011;2196;47.422;9.656;2022-08-03T04:33:49;3.17;;;2.80;;
4365;SDS011;2196;47.422;9.656;2022-08-03T04:36:20;3.70;;;3.50;;
4365;SDS011;2196;47.422;9.656;2022-08-03T04:38:52;3.13;;;3.03;;
4365;SDS011;2196;47.422;9.656;2022-08-03T04:41:23;2.90;;;2.80;;
4365;SDS011;2196;47.422;9.656;2022-08-03T04:43:53;2.87;;;2.77;;
4365;SDS011;2196;47.422;9.656;2022-08-03T04:46:24;3.40;;;3.10;;
4365;SDS011;2196;47.422;9.656;2022-08-03T04:48:54;3.57;;;3.47;;
4365;SDS011;2196;47.422;9.656;2022-08-03T04:51:21;3.87;;;3.67;;
4365;SDS011;2196;47.422;9.656;2022-08-03T04:53:49;3.30;;;3.10;;
4365;SDS011;2196;47.422;9.656;2022-08-03T04:56:16;2.97;;;2.87;;
4365;SDS011;2196;47.422;9.656;2022-08-03T04:58:43;3.10;;;3.00;;
4365;SDS011;2196;47.422;9.656;2022-08-03T05:01:13;3.70;;;3.43;;
4365;SDS011;2196;47.422;9.656;2022-08-03T05:03:42;3.03;;;2.93;;
4365;SDS011;2196;47.422;9.656;2022-08-03T05:06:12;2.80;;;2.70;;
4365;SDS011;2196;47.422;9.656;2022-08-03T05:08:39;3.43;;;2.50;;
4365;SDS011;2196;47.422;9.656;2022-08-03T05:11:08;2.83;;;2.73;;
4365;SDS011;2196;47.422;9.656;2022-08-03T05:13:35;2.73;;;2.63;;
4365;SDS011;2196;47.422;9.656;2022-08-03T05:16:03;6.00;;;3.03;;
4365;SDS011;2196;47.422;9.656;2022-08-03T05:18:30;2.63;;;2.33;;
4365;SDS011;2196;47.422;9.656;2022-08-03T05:20:59;3.90;;;2.60;;
4365;SDS011;2196;47.422;9.656;2022-08-03T05:23:26;2.53;;;2.43;;
4365;SDS011;2196;47.422;9.656;2022-08-03T05:25:53;2.67;;;2.57;;
4365;SDS011;2196;47.422;9.656;2022-08-03T05:28:20;2.23;;;2.13;;
4365;SDS011;2196;47.422;9.656;2022-08-03T05:30:47;2.83;;;2.63;;
4365;SDS011;2196;47.422;9.656;2022-08-03T05:33:14;1.90;;;1.80;;
4365;SDS011;2196;47.422;9.656;2022-08-03T05:35:41;2.37;;;2.27;;
4365;SDS011;2196;47.422;9.656;2022-08-03T05:38:10;2.50;;;2.40;;
4365;SDS011;2196;47.422;9.656;2022-08-03T05:40:37;2.20;;;2.10;;
4365;SDS011;2196;47.422;9.656;2022-08-03T05:43:04;2.03;;;2.03;;
4365;SDS011;2196;47.422;9.656;2022-08-03T05:45:31;2.63;;;2.42;;
4365;SDS011;2196;47.422;9.656;2022-08-03T05:47:58;2.03;;;2.03;;
4365;SDS011;2196;47.422;9.656;2022-08-03T05:50:25;2.17;;;2.00;;
4365;SDS011;2196;47.422;9.656;2022-08-03T05:52:54;2.28;;;2.17;;
4365;SDS011;2196;47.422;9.656;2022-08-03T05:55:24;2.45;;;2.08;;
4365;SDS011;2196;47.422;9.656;2022-08-03T05:57:51;2.88;;;2.60;;
4365;SDS011;2196;47.422;9.656;2022-08-03T06:00:19;2.10;;;1.98;;
4365;SDS011;2196;47.422;9.656;2022-08-03T06:02:45;3.10;;;3.00;;
4365;SDS011;2196;47.422;9.656;2022-08-03T06:05:12;1.83;;;1.80;;
4365;SDS011;2196;47.422;9.656;2022-08-03T06:07:40;2.00;;;2.00;;
4365;SDS011;2196;47.422;9.656;2022-08-03T06:10:07;1.63;;;1.52;;
4365;SDS011;2196;47.422;9.656;2022-08-03T06:12:36;3.72;;;2.33;;
4365;SDS011;2196;47.422;9.656;2022-08-03T06:15:05;1.90;;;1.80;;
4365;SDS011;2196;47.422;9.656;2022-08-03T06:17:33;2.03;;;1.88;;
4365;SDS011;2196;47.422;9.656;2022-08-03T06:20:00;1.58;;;1.58;;
4365;SDS011;2196;47.422;9.656;2022-08-03T06:22:27;2.20;;;1.98;;
4365;SDS011;2196;47.422;9.656;2022-08-03T06:24:54;1.80;;;1.70;;
4365;SDS011;2196;47.422;9.656;2022-08-03T06:27:22;2.25;;;2.05;;
4365;SDS011;2196;47.422;9.656;2022-08-03T06:29:51;2.25;;;2.10;;
4365;SDS011;2196;47.422;9.656;2022-08-03T06:32:18;1.85;;;1.85;;
4365;SDS011;2196;47.422;9.656;2022-08-03T06:34:47;1.77;;;1.77;;
4365;SDS011;2196;47.422;9.656;2022-08-03T06:37:14;1.58;;;1.58;;
4365;SDS011;2196;47.422;9.656;2022-08-03T06:39:41;3.28;;;2.38;;
4365;SDS011;2196;47.422;9.656;2022-08-03T06:42:09;2.03;;;2.03;;
4365;SDS011;2196;47.422;9.656;2022-08-03T06:44:36;2.10;;;2.00;;
4365;SDS011;2196;47.422;9.656;2022-08-03T06:47:05;2.85;;;2.28;;
4365;SDS011;2196;47.422;9.656;2022-08-03T06:49:33;1.98;;;1.88;;
4365;SDS011;2196;47.422;9.656;2022-08-03T06:52:00;2.88;;;2.03;;
4365;SDS011;2196;47.422;9.656;2022-08-03T06:54:27;3.40;;;1.50;;
4365;SDS011;2196;47.422;9.656;2022-08-03T06:56:54;2.13;;;2.03;;
4365;SDS011;2196;47.422;9.656;2022-08-03T06:59:21;2.33;;;2.05;;
4365;SDS011;2196;47.422;9.656;2022-08-03T07:01:48;1.88;;;1.88;;
4365;SDS011;2196;47.422;9.656;2022-08-03T07:04:16;3.00;;;2.08;;
4365;SDS011;2196;47.422;9.656;2022-08-03T07:06:43;3.53;;;2.00;;
4365;SDS011;2196;47.422;9.656;2022-08-03T07:09:10;2.10;;;2.00;;
4365;SDS011;2196;47.422;9.656;2022-08-03T07:11:37;2.30;;;2.10;;
4365;SDS011;2196;47.422;9.656;2022-08-03T07:14:04;1.98;;;1.73;;
4365;SDS011;2196;47.422;9.656;2022-08-03T07:16:31;2.70;;;2.53;;
4365;SDS011;2196;47.422;9.656;2022-08-03T07:18:58;3.95;;;2.30;;
4365;SDS011;2196;47.422;9.656;2022-08-03T07:21:26;2.20;;;2.10;;
4365;SDS011;2196;47.422;9.656;2022-08-03T07:23:53;1.95;;;1.95;;
4365;SDS011;2196;47.422;9.656;2022-08-03T07:26:20;1.98;;;1.95;;
4365;SDS011;2196;47.422;9.656;2022-08-03T07:28:47;2.03;;;1.92;;
4365;SDS011;2196;47.422;9.656;2022-08-03T07:31:14;2.50;;;2.40;;
4365;SDS011;2196;47.422;9.656;2022-08-03T07:33:41;1.80;;;1.80;;
4365;SDS011;2196;47.422;9.656;2022-08-03T07:36:08;2.20;;;2.00;;
4365;SDS011;2196;47.422;9.656;2022-08-03T07:38:36;2.60;;;2.38;;
4365;SDS011;2196;47.422;9.656;2022-08-03T07:41:03;1.80;;;1.80;;
4365;SDS011;2196;47.422;9.656;2022-08-03T07:43:30;3.80;;;2.10;;
4365;SDS011;2196;47.422;9.656;2022-08-03T07:45:57;2.15;;;2.05;;
4365;SDS011;2196;47.422;9.656;2022-08-03T07:48:24;1.92;;;1.85;;
4365;SDS011;2196;47.422;9.656;2022-08-03T07:50:51;2.25;;;2.25;;
4365;SDS011;2196;47.422;9.656;2022-08-03T07:53:18;2.08;;;1.98;;
4365;SDS011;2196;47.422;9.656;2022-08-03T07:55:46;2.10;;;2.10;;
4365;SDS011;2196;47.422;9.656;2022-08-03T07:58:13;2.15;;;2.15;;
4365;SDS011;2196;47.422;9.656;2022-08-03T08:00:42;1.75;;;1.75;;
4365;SDS011;2196;47.422;9.656;2022-08-03T08:03:09;2.50;;;2.40;;
4365;SDS011;2196;47.422;9.656;2022-08-03T08:05:37;2.10;;;2.10;;
4365;SDS011;2196;47.422;9.656;2022-08-03T08:08:04;2.03;;;2.00;;
4365;SDS011;2196;47.422;9.656;2022-08-03T08:10:32;2.60;;;2.40;;
4365;SDS011;2196;47.422;9.656;2022-08-03T08:13:01;2.15;;;1.92;;
4365;SDS011;2196;47.422;9.656;2022-08-03T08:15:28;2.70;;;2.50;;
4365;SDS011;2196;47.422;9.656;2022-08-03T08:17:56;1.73;;;1.63;;
4365;SDS011;2196;47.422;9.656;2022-08-03T08:20:26;2.08;;;2.08;;
4365;SDS011;2196;47.422;9.656;2022-08-03T08:22:55;2.45;;;2.28;;
4365;SDS011;2196;47.422;9.656;2022-08-03T08:25:23;2.10;;;2.00;;
4365;SDS011;2196;47.422;9.656;2022-08-03T08:27:50;2.30;;;2.10;;
4365;SDS011;2196;47.422;9.656;2022-08-03T08:30:20;2.47;;;2.28;;
4365;SDS011;2196;47.422;9.656;2022-08-03T08:32:49;3.22;;;2.50;;
4365;SDS011;2196;47.422;9.656;2022-08-03T08:35:16;2.33;;;2.22;;
4365;SDS011;2196;47.422;9.656;2022-08-03T08:37:44;2.60;;;2.40;;
4365;SDS011;2196;47.422;9.656;2022-08-03T08:40:11;1.98;;;1.88;;
4365;SDS011;2196;47.422;9.656;2022-08-03T08:42:39;2.45;;;2.25;;
4365;SDS011;2196;47.422;9.656;2022-08-03T08:45:08;2.42;;;2.42;;
4365;SDS011;2196;47.422;9.656;2022-08-03T08:47:37;4.00;;;2.20;;
4365;SDS011;2196;47.422;9.656;2022-08-03T08:50:06;2.20;;;2.10;;
4365;SDS011;2196;47.422;9.656;2022-08-03T08:52:35;2.50;;;2.30;;
4365;SDS011;2196;47.422;9.656;2022-08-03T08:55:06;3.03;;;3.03;;
4365;SDS011;2196;47.422;9.656;2022-08-03T08:57:37;2.60;;;2.40;;
4365;SDS011;2196;47.422;9.656;2022-08-03T09:00:10;2.70;;;2.38;;
4365;SDS011;2196;47.422;9.656;2022-08-03T09:02:40;2.85;;;2.60;;
4365;SDS011;2196;47.422;9.656;2022-08-03T09:05:08;4.50;;;2.45;;
4365;SDS011;2196;47.422;9.656;2022-08-03T09:07:37;2.22;;;2.03;;
4365;SDS011;2196;47.422;9.656;2022-08-03T09:10:04;2.40;;;2.20;;
4365;SDS011;2196;47.422;9.656;2022-08-03T09:12:35;3.22;;;2.20;;
4365;SDS011;2196;47.422;9.656;2022-08-03T09:15:17;2.53;;;2.42;;
4365;SDS011;2196;47.422;9.656;2022-08-03T09:17:50;2.35;;;2.25;;
4365;SDS011;2196;47.422;9.656;2022-08-03T09:20:19;2.65;;;2.50;;
4365;SDS011;2196;47.422;9.656;2022-08-03T09:22:52;2.42;;;2.33;;
4365;SDS011;2196;47.422;9.656;2022-08-03T09:25:28;2.50;;;2.40;;
4365;SDS011;2196;47.422;9.656;2022-08-03T09:28:02;5.43;;;3.00;;
4365;SDS011;2196;47.422;9.656;2022-08-03T09:30:31;2.28;;;2.28;;
4365;SDS011;2196;47.422;9.656;2022-08-03T09:33:00;2.95;;;2.80;;
4365;SDS011;2196;47.422;9.656;2022-08-03T09:35:27;2.60;;;2.47;;
4365;SDS011;2196;47.422;9.656;2022-08-03T09:38:07;2.53;;;2.33;;
4365;SDS011;2196;47.422;9.656;2022-08-03T09:40:38;2.78;;;2.55;;
4365;SDS011;2196;47.422;9.656;2022-08-03T09:43:05;2.10;;;2.08;;
4365;SDS011;2196;47.422;9.656;2022-08-03T09:45:33;2.42;;;2.33;;
4365;SDS011;2196;47.422;9.656;2022-08-03T09:48:22;2.38;;;2.28;;
4365;SDS011;2196;47.422;9.656;2022-08-03T09:50:49;2.78;;;2.58;;
4365;SDS011;2196;47.422;9.656;2022-08-03T09:53:18;2.55;;;2.47;;
4365;SDS011;2196;47.422;9.656;2022-08-03T09:55:55;3.35;;;2.55;;
4365;SDS011;2196;47.422;9.656;2022-08-03T09:58:23;2.67;;;2.63;;
4365;SDS011;2196;47.422;9.656;2022-08-03T10:00:52;2.78;;;2.67;;
4365;SDS011;2196;47.422;9.656;2022-08-03T10:03:22;3.53;;;3.35;;
4365;SDS011;2196;47.422;9.656;2022-08-03T10:05:50;3.40;;;3.30;;
4365;SDS011;2196;47.422;9.656;2022-08-03T10:08:18;5.07;;;3.42;;
4365;SDS011;2196;47.422;9.656;2022-08-03T10:10:46;3.00;;;2.90;;
4365;SDS011;2196;47.422;9.656;2022-08-03T10:13:15;3.63;;;3.42;;
4365;SDS011;2196;47.422;9.656;2022-08-03T10:15:42;2.90;;;2.90;;
4365;SDS011;2196;47.422;9.656;2022-08-03T10:18:09;3.53;;;3.42;;
4365;SDS011;2196;47.422;9.656;2022-08-03T10:20:39;3.58;;;3.38;;
4365;SDS011;2196;47.422;9.656;2022-08-03T10:23:10;3.38;;;3.28;;
4365;SDS011;2196;47.422;9.656;2022-08-03T10:25:39;2.90;;;2.75;;
4365;SDS011;2196;47.422;9.656;2022-08-03T10:28:09;3.28;;;3.03;;
4365;SDS011;2196;47.422;9.656;2022-08-03T10:30:40;3.17;;;2.85;;
4365;SDS011;2196;47.422;9.656;2022-08-03T10:33:12;2.88;;;2.67;;
4365;SDS011;2196;47.422;9.656;2022-08-03T10:35:44;2.92;;;2.92;;
4365;SDS011;2196;47.422;9.656;2022-08-03T10:38:15;2.58;;;2.47;;
4365;SDS011;2196;47.422;9.656;2022-08-03T10:40:44;2.40;;;2.30;;
4365;SDS011;2196;47.422;9.656;2022-08-03T10:43:15;5.88;;;2.65;;
4365;SDS011;2196;47.422;9.656;2022-08-03T10:45:45;2.70;;;2.50;;
4365;SDS011;2196;47.422;9.656;2022-08-03T10:48:13;3.15;;;3.05;;
4365;SDS011;2196;47.422;9.656;2022-08-03T10:50:40;2.13;;;2.13;;
4365;SDS011;2196;47.422;9.656;2022-08-03T10:53:09;1.63;;;1.63;;
4365;SDS011;2196;47.422;9.656;2022-08-03T10:55:37;2.55;;;2.45;;
4365;SDS011;2196;47.422;9.656;2022-08-03T11:01:17;2.33;;;2.33;;
4365;SDS011;2196;47.422;9.656;2022-08-03T11:04:14;3.03;;;1.67;;
4365;SDS011;2196;47.422;9.656;2022-08-03T11:06:45;2.22;;;2.13;;
4365;SDS011;2196;47.422;9.656;2022-08-03T11:09:15;2.30;;;1.95;;
4365;SDS011;2196;47.422;9.656;2022-08-03T11:11:44;3.05;;;2.20;;
4365;SDS011;2196;47.422;9.656;2022-08-03T11:14:13;2.55;;;2.35;;
4365;SDS011;2196;47.422;9.656;2022-08-03T11:16:43;2.13;;;2.03;;
4365;SDS011;2196;47.422;9.656;2022-08-03T11:19:12;2.38;;;2.17;;
4365;SDS011;2196;47.422;9.656;2022-08-03T11:21:53;2.35;;;2.25;;
4365;SDS011;2196;47.422;9.656;2022-08-03T11:27:24;1.67;;;1.67;;
4365;SDS011;2196;47.422;9.656;2022-08-03T11:29:57;2.13;;;2.03;;
4365;SDS011;2196;47.422;9.656;2022-08-03T11:35:20;2.17;;;2.08;;
4365;SDS011;2196;47.422;9.656;2022-08-03T11:38:05;2.10;;;2.10;;
4365;SDS011;2196;47.422;9.656;2022-08-03T11:40:37;2.30;;;2.30;;
4365;SDS011;2196;47.422;9.656;2022-08-03T11:43:06;2.05;;;2.03;;
4365;SDS011;2196;47.422;9.656;2022-08-03T11:45:34;2.45;;;2.28;;
4365;SDS011;2196;47.422;9.656;2022-08-03T11:48:10;1.75;;;1.65;;
4365;SDS011;2196;47.422;9.656;2022-08-03T11:50:39;2.10;;;2.00;;
4365;SDS011;2196;47.422;9.656;2022-08-03T11:53:12;2.65;;;2.55;;
4365;SDS011;2196;47.422;9.656;2022-08-03T11:55:42;2.15;;;2.15;;
4365;SDS011;2196;47.422;9.656;2022-08-03T11:58:16;2.00;;;1.90;;
4365;SDS011;2196;47.422;9.656;2022-08-03T12:00:44;1.80;;;1.80;;
4365;SDS011;2196;47.422;9.656;2022-08-03T12:03:11;1.83;;;1.83;;
4365;SDS011;2196;47.422;9.656;2022-08-03T12:05:46;2.63;;;2.53;;
4365;SDS011;2196;47.422;9.656;2022-08-03T12:08:17;1.95;;;1.95;;
4365;SDS011;2196;47.422;9.656;2022-08-03T12:10:56;2.25;;;2.05;;
4365;SDS011;2196;47.422;9.656;2022-08-03T12:13:24;1.88;;;1.77;;
4365;SDS011;2196;47.422;9.656;2022-08-03T12:15:52;2.17;;;1.83;;
4365;SDS011;2196;47.422;9.656;2022-08-03T12:18:20;2.53;;;2.15;;
4365;SDS011;2196;47.422;9.656;2022-08-03T12:20:49;1.40;;;1.40;;
4365;SDS011;2196;47.422;9.656;2022-08-03T12:23:17;1.70;;;1.70;;
4365;SDS011;2196;47.422;9.656;2022-08-03T12:25:45;5.22;;;2.50;;
4365;SDS011;2196;47.422;9.656;2022-08-03T12:28:15;1.75;;;1.75;;
4365;SDS011;2196;47.422;9.656;2022-08-03T12:30:44;1.83;;;1.83;;
4365;SDS011;2196;47.422;9.656;2022-08-03T12:33:13;1.58;;;1.58;;
4365;SDS011;2196;47.422;9.656;2022-08-03T12:35:44;2.10;;;2.00;;
4365;SDS011;2196;47.422;9.656;2022-08-03T12:38:11;1.77;;;1.77;;
4365;SDS011;2196;47.422;9.656;2022-08-03T12:40:38;1.67;;;1.67;;
4365;SDS011;2196;47.422;9.656;2022-08-03T12:43:09;1.80;;;1.80;;
4365;SDS011;2196;47.422;9.656;2022-08-03T12:45:39;1.60;;;1.60;;
4365;SDS011;2196;47.422;9.656;2022-08-03T12:48:09;1.58;;;1.58;;
4365;SDS011;2196;47.422;9.656;2022-08-03T12:50:37;3.42;;;1.55;;
4365;SDS011;2196;47.422;9.656;2022-08-03T12:53:06;1.42;;;1.42;;
4365;SDS011;2196;47.422;9.656;2022-08-03T12:55:34;1.73;;;1.60;;
4365;SDS011;2196;47.422;9.656;2022-08-03T12:58:03;2.25;;;1.90;;
4365;SDS011;2196;47.422;9.656;2022-08-03T13:00:31;1.63;;;1.63;;
4365;SDS011;2196;47.422;9.656;2022-08-03T13:03:00;1.90;;;1.80;;
4365;SDS011;2196;47.422;9.656;2022-08-03T13:05:28;2.10;;;2.10;;
4365;SDS011;2196;47.422;9.656;2022-08-03T13:07:56;1.75;;;1.45;;
4365;SDS011;2196;47.422;9.656;2022-08-03T13:10:27;1.60;;;1.55;;
4365;SDS011;2196;47.422;9.656;2022-08-03T13:12:55;3.15;;;1.52;;
4365;SDS011;2196;47.422;9.656;2022-08-03T13:15:24;1.63;;;1.63;;
4365;SDS011;2196;47.422;9.656;2022-08-03T13:17:54;1.42;;;1.42;;
4365;SDS011;2196;47.422;9.656;2022-08-03T13:20:22;1.42;;;1.42;;
4365;SDS011;2196;47.422;9.656;2022-08-03T13:22:50;2.03;;;1.20;;
4365;SDS011;2196;47.422;9.656;2022-08-03T13:25:17;1.30;;;1.30;;
4365;SDS011;2196;47.422;9.656;2022-08-03T13:27:44;1.30;;;1.30;;
4365;SDS011;2196;47.422;9.656;2022-08-03T13:30:12;1.70;;;1.50;;
4365;SDS011;2196;47.422;9.656;2022-08-03T13:32:40;2.00;;;1.90;;
4365;SDS011;2196;47.422;9.656;2022-08-03T13:35:08;1.23;;;1.23;;
4365;SDS011;2196;47.422;9.656;2022-08-03T13:37:36;1.48;;;1.45;;
4365;SDS011;2196;47.422;9.656;2022-08-03T13:40:04;1.40;;;1.40;;
4365;SDS011;2196;47.422;9.656;2022-08-03T13:42:33;1.20;;;1.20;;
4365;SDS011;2196;47.422;9.656;2022-08-03T13:45:01;3.70;;;1.67;;
4365;SDS011;2196;47.422;9.656;2022-08-03T13:47:29;1.27;;;1.27;;
4365;SDS011;2196;47.422;9.656;2022-08-03T13:49:56;1.45;;;1.45;;
4365;SDS011;2196;47.422;9.656;2022-08-03T13:52:23;1.15;;;1.15;;
4365;SDS011;2196;47.422;9.656;2022-08-03T13:54:51;1.35;;;1.35;;
4365;SDS011;2196;47.422;9.656;2022-08-03T13:57:18;1.17;;;1.17;;
4365;SDS011;2196;47.422;9.656;2022-08-03T13:59:45;1.55;;;1.55;;
4365;SDS011;2196;47.422;9.656;2022-08-03T14:02:13;1.75;;;1.58;;
4365;SDS011;2196;47.422;9.656;2022-08-03T14:04:40;1.65;;;1.65;;
4365;SDS011;2196;47.422;9.656;2022-08-03T14:07:07;1.65;;;1.55;;
4365;SDS011;2196;47.422;9.656;2022-08-03T14:09:34;3.22;;;1.70;;
4365;SDS011;2196;47.422;9.656;2022-08-03T14:12:03;2.05;;;1.98;;
4365;SDS011;2196;47.422;9.656;2022-08-03T14:14:30;2.22;;;1.73;;
4365;SDS011;2196;47.422;9.656;2022-08-03T14:16:57;1.80;;;1.80;;
4365;SDS011;2196;47.422;9.656;2022-08-03T14:19:24;1.80;;;1.80;;
4365;SDS011;2196;47.422;9.656;2022-08-03T14:21:51;2.03;;;1.92;;
4365;SDS011;2196;47.422;9.656;2022-08-03T14:24:18;2.53;;;2.35;;
4365;SDS011;2196;47.422;9.656;2022-08-03T14:26:45;2.53;;;2.33;;
4365;SDS011;2196;47.422;9.656;2022-08-03T14:29:13;2.22;;;2.10;;
4365;SDS011;2196;47.422;9.656;2022-08-03T14:31:40;2.33;;;2.33;;
4365;SDS011;2196;47.422;9.656;2022-08-03T14:34:08;2.75;;;2.65;;
4365;SDS011;2196;47.422;9.656;2022-08-03T14:36:35;3.88;;;2.58;;
4365;SDS011;2196;47.422;9.656;2022-08-03T14:39:02;2.22;;;2.00;;
4365;SDS011;2196;47.422;9.656;2022-08-03T14:41:29;1.88;;;1.77;;
4365;SDS011;2196;47.422;9.656;2022-08-03T14:43:56;2.67;;;2.47;;
4365;SDS011;2196;47.422;9.656;2022-08-03T14:46:25;2.65;;;2.55;;
4365;SDS011;2196;47.422;9.656;2022-08-03T14:48:52;2.17;;;2.15;;
4365;SDS011;2196;47.422;9.656;2022-08-03T14:51:19;2.47;;;2.38;;
4365;SDS011;2196;47.422;9.656;2022-08-03T14:53:45;2.40;;;2.40;;
4365;SDS011;2196;47.422;9.656;2022-08-03T14:56:12;2.08;;;1.95;;
4365;SDS011;2196;47.422;9.656;2022-08-03T14:58:39;2.00;;;2.00;;
4365;SDS011;2196;47.422;9.656;2022-08-03T15:01:07;1.95;;;1.95;;
4365;SDS011;2196;47.422;9.656;2022-08-03T15:03:35;2.33;;;2.08;;
4365;SDS011;2196;47.422;9.656;2022-08-03T15:06:02;2.30;;;2.20;;
4365;SDS011;2196;47.422;9.656;2022-08-03T15:08:29;1.67;;;1.60;;
4365;SDS011;2196;47.422;9.656;2022-08-03T15:10:56;1.92;;;1.80;;
4365;SDS011;2196;47.422;9.656;2022-08-03T15:13:23;1.77;;;1.67;;
4365;SDS011;2196;47.422;9.656;2022-08-03T15:15:50;3.90;;;2.10;;
4365;SDS011;2196;47.422;9.656;2022-08-03T15:18:17;1.70;;;1.70;;
4365;SDS011;2196;47.422;9.656;2022-08-03T15:20:46;1.75;;;1.75;;
4365;SDS011;2196;47.422;9.656;2022-08-03T15:23:15;1.80;;;1.80;;
4365;SDS011;2196;47.422;9.656;2022-08-03T15:25:42;1.70;;;1.60;;
4365;SDS011;2196;47.422;9.656;2022-08-03T15:28:10;2.67;;;1.95;;
4365;SDS011;2196;47.422;9.656;2022-08-03T15:30:37;2.17;;;2.08;;
4365;SDS011;2196;47.422;9.656;2022-08-03T15:33:04;1.48;;;1.48;;
4365;SDS011;2196;47.422;9.656;2022-08-03T15:35:31;1.80;;;1.80;;
4365;SDS011;2196;47.422;9.656;2022-08-03T15:38:00;1.92;;;1.88;;